Time;durP1;ratioP1;P1;durP2;ratioP2;P2;SDS_P1;SDS_P2;PMS_P1;PMS_P2;Temp;Humidity;BMP_temperature;BMP_pressure;BME280_temperature;BME280_humidity;BME280_pressure;Samples;Min_cycle;Max_cycle;Signal;HPM_P1;HPM_P2
2023/12/01 00:00:10;;;;;;;0.60;0.60;;;;;;;0.88;100.00;95180.56;29395;297;63009;-54
2023/12/01 00:00:41;;;;;;;0.60;0.60;;;;;;;0.89;100.00;95182.19;29394;206;64009;-54
2023/12/01 00:01:12;;;;;;;0.70;0.70;;;;;;;0.89;100.00;95176.84;29395;218;63005;-54
2023/12/01 00:01:43;;;;;;;0.62;0.62;;;;;;;0.88;100.00;95178.72;29395;276;63005;-54
2023/12/01 00:02:15;;;;;;;0.70;0.70;;;;;;;0.88;100.00;95176.03;29395;212;63009;-55
2023/12/01 00:02:46;;;;;;;0.60;0.60;;;;;;;0.87;100.00;95174.44;29395;204;63004;-54
2023/12/01 00:03:17;;;;;;;0.70;0.70;;;;;;;0.87;100.00;95178.97;29395;205;63009;-54
2023/12/01 00:03:48;;;;;;;0.70;0.70;;;;;;;0.87;100.00;95178.97;29395;230;63004;-74
2023/12/01 00:04:20;;;;;;;0.70;0.70;;;;;;;0.87;100.00;95176.31;29395;249;63024;-55
2023/12/01 00:04:52;;;;;;;0.60;0.60;;;;;;;0.86;100.00;95174.72;29395;217;63015;-54
2023/12/01 00:05:24;;;;;;;0.70;0.70;;;;;;;0.87;100.00;95173.63;29395;209;63008;-74
2023/12/01 00:05:55;;;;;;;0.62;0.62;;;;;;;0.86;100.00;95172.84;29394;197;64009;-54
2023/12/01 00:06:26;;;;;;;0.70;0.70;;;;;;;0.86;100.00;95172.03;29373;234;63014;-54
2023/12/01 00:06:58;;;;;;;0.60;0.60;;;;;;;0.86;100.00;95169.37;29395;237;63005;-54
2023/12/01 00:07:29;;;;;;;0.60;0.60;;;;;;;0.86;100.00;95166.69;29395;251;63009;-54
2023/12/01 00:08:00;;;;;;;0.70;0.70;;;;;;;0.87;100.00;95170.97;29394;224;64005;-54
2023/12/01 00:08:31;;;;;;;0.60;0.60;;;;;;;0.87;100.00;95171.78;29395;235;63009;-54
2023/12/01 00:09:02;;;;;;;0.60;0.60;;;;;;;0.86;100.00;95172.03;29395;262;63005;-54
2023/12/01 00:09:34;;;;;;;0.70;0.70;;;;;;;0.88;100.00;95183.25;29395;299;63009;-54
2023/12/01 00:10:10;;;;;;;0.60;0.60;;;;;;;0.87;100.00;95179.78;29395;221;63004;-54
2023/12/01 00:10:42;;;;;;;0.60;0.60;;;;;;;0.87;100.00;95177.09;29395;283;63009;-54
2023/12/01 00:11:14;;;;;;;0.60;0.60;;;;;;;0.88;100.00;95180.56;29394;204;64009;-54
2023/12/01 00:11:47;;;;;;;0.60;0.60;;;;;;;0.88;100.00;95170.69;29395;243;63009;-55
2023/12/01 00:12:18;;;;;;;0.60;0.60;;;;;;;0.88;100.00;95172.56;29395;227;63004;-55
2023/12/01 00:12:50;;;;;;;0.70;0.70;;;;;;;0.87;100.00;95168.31;29395;228;63008;-54
2023/12/01 00:13:21;;;;;;;0.60;0.60;;;;;;;0.86;100.00;95166.69;29395;231;63005;-55
2023/12/01 00:13:52;;;;;;;0.60;0.60;;;;;;;0.86;100.00;95172.84;29395;198;63009;-54
2023/12/01 00:14:23;;;;;;;0.70;0.70;;;;;;;0.85;100.00;95171.25;29395;198;63005;-54
2023/12/01 00:14:55;;;;;;;0.60;0.60;;;;;;;0.86;100.00;95167.50;29395;235;63020;-54
2023/12/01 00:15:27;;;;;;;0.70;0.70;;;;;;;0.86;100.00;95166.69;29395;236;63005;-54
2023/12/01 00:15:58;;;;;;;0.70;0.70;;;;;;;0.86;100.00;95166.69;29395;231;63009;-54
2023/12/01 00:16:29;;;;;;;0.65;0.65;;;;;;;0.87;100.00;95176.31;29394;222;64009;-73
2023/12/01 00:17:01;;;;;;;0.50;0.50;;;;;;;0.87;100.00;95173.63;29395;238;63009;-54
2023/12/01 00:17:33;;;;;;;0.68;0.68;;;;;;;0.87;100.00;95165.62;29395;202;63004;-54
2023/12/01 00:18:04;;;;;;;0.70;0.70;;;;;;;0.88;100.00;95175.25;29395;225;63009;-54
2023/12/01 00:18:35;;;;;;;0.70;0.70;;;;;;;0.88;100.00;95177.91;29395;235;63004;-75
2023/12/01 00:19:06;;;;;;;0.60;0.60;;;;;;;0.88;100.00;95176.03;29395;196;63009;-54
2023/12/01 00:19:40;;;;;;;0.70;0.70;;;;;;;0.88;100.00;95176.03;29395;239;63004;-54
2023/12/01 00:20:11;;;;;;;0.70;0.70;;;;;;;0.88;100.00;95176.03;29395;216;63008;-55
2023/12/01 00:20:43;;;;;;;0.60;0.60;;;;;;;0.90;100.00;95183.78;29395;212;63004;-54
2023/12/01 00:21:15;;;;;;;0.60;0.60;;;;;;;0.89;100.00;95180.31;29373;222;63009;-54
2023/12/01 00:21:46;;;;;;;0.65;0.65;;;;;;;0.90;100.00;95183.78;29394;211;64009;-55
2023/12/01 00:22:18;;;;;;;0.60;0.60;;;;;;;0.90;100.00;95173.09;29395;243;63009;-54
2023/12/01 00:22:51;;;;;;;0.60;0.60;;;;;;;0.90;100.00;95176.56;29373;229;63005;-54
2023/12/01 00:23:22;;;;;;;0.60;0.60;;;;;;;0.91;100.00;95185.38;29395;280;63009;-54
2023/12/01 00:23:55;;;;;;;0.60;0.60;;;;;;;0.91;100.00;95180.03;29371;233;64009;-55
2023/12/01 00:24:26;;;;;;;0.60;0.60;;;;;;;0.90;100.00;95178.44;29395;227;63014;-54
2023/12/01 00:24:57;;;;;;;0.68;0.68;;;;;;;0.92;100.00;95173.63;29395;239;63000;-54
2023/12/01 00:25:29;;;;;;;0.60;0.60;;;;;;;0.90;100.00;95178.44;29395;202;63009;-54
2023/12/01 00:26:00;;;;;;;0.60;0.60;;;;;;;0.91;100.00;95169.34;29395;273;63004;-54
2023/12/01 00:26:31;;;;;;;0.60;0.60;;;;;;;0.88;100.00;95168.03;29395;245;63009;-54
2023/12/01 00:27:04;;;;;;;0.68;0.68;;;;;;;0.87;100.00;95162.97;29395;229;63004;-54
2023/12/01 00:27:35;;;;;;;0.68;0.68;;;;;;;0.87;100.00;95165.62;29395;224;63015;-54
2023/12/01 00:28:07;;;;;;;0.68;0.68;;;;;;;0.86;100.00;95162.16;29395;223;63005;-54
2023/12/01 00:28:38;;;;;;;0.60;0.60;;;;;;;0.87;100.00;95161.09;29395;197;63009;-54
2023/12/01 00:29:09;;;;;;;0.70;0.70;;;;;;;0.88;100.00;95164.56;29394;207;64009;-54
2023/12/01 00:29:40;;;;;;;0.60;0.60;;;;;;;0.88;100.00;95164.56;29395;201;63009;-54
2023/12/01 00:30:12;;;;;;;0.60;0.60;;;;;;;0.88;100.00;95164.56;29395;245;63005;-54
2023/12/01 00:30:43;;;;;;;0.60;0.60;;;;;;;0.89;100.00;95168.81;29394;207;64013;-55
2023/12/01 00:31:14;;;;;;;0.60;0.60;;;;;;;0.89;100.00;95168.81;29395;208;63005;-54
2023/12/01 00:31:46;;;;;;;0.60;0.60;;;;;;;0.89;100.00;95174.16;29395;216;63009;-55
2023/12/01 00:32:17;;;;;;;0.70;0.70;;;;;;;0.90;100.00;95175.75;29395;196;63004;-54
2023/12/01 00:32:48;;;;;;;0.60;0.60;;;;;;;0.89;100.00;95161.63;29395;206;63009;-54
2023/12/01 00:33:19;;;;;;;0.60;0.60;;;;;;;0.90;100.00;95171.22;29395;202;63004;-54
2023/12/01 00:33:51;;;;;;;0.60;0.60;;;;;;;0.91;100.00;95169.34;29395;207;63009;-55
2023/12/01 00:34:22;;;;;;;0.60;0.60;;;;;;;0.92;100.00;95165.59;29395;204;63004;-54
2023/12/01 00:34:54;;;;;;;3.80;3.42;;;;;;;0.92;100.00;95165.59;29395;237;63008;-75
2023/12/01 00:35:26;;;;;;;0.70;0.70;;;;;;;0.92;100.00;95170.94;29395;234;63005;-54
2023/12/01 00:35:57;;;;;;;0.70;0.70;;;;;;;0.93;100.00;95172.56;29394;229;64014;-54
2023/12/01 00:36:29;;;;;;;0.60;0.60;;;;;;;0.92;100.00;95171.75;29395;244;63005;-54
2023/12/01 00:37:49;;;;;;;0.60;0.60;;;;;;;0.94;100.00;95182.16;29395;210;63005;-54
2023/12/01 00:38:20;;;;;;;0.70;0.70;;;;;;;0.93;100.00;95167.22;29395;274;63009;-55
2023/12/01 00:38:52;;;;;;;0.70;0.70;;;;;;;0.93;100.00;95172.56;29395;216;63005;-55
2023/12/01 00:39:23;;;;;;;0.60;0.60;;;;;;;0.93;100.00;95173.34;29395;216;63009;-55
2023/12/01 00:39:54;;;;;;;0.60;0.60;;;;;;;0.93;100.00;95172.56;29373;239;63004;-54
2023/12/01 00:40:26;;;;;;;0.70;0.70;;;;;;;0.94;100.00;95174.16;29373;202;63009;-54
2023/12/01 00:40:57;;;;;;;0.60;0.60;;;;;;;0.93;100.00;95176.03;29394;223;64009;-54
2023/12/01 00:41:29;;;;;;;0.65;0.65;;;;;;;0.96;100.00;95177.34;29394;225;64013;-54
2023/12/01 00:42:01;;;;;;;0.70;0.70;;;;;;;0.95;100.00;95176.56;29395;225;63004;-54
2023/12/01 00:42:32;;;;;;;0.70;0.70;;;;;;;0.95;100.00;95178.41;29395;231;63008;-54
2023/12/01 00:43:03;;;;;;;0.60;0.60;;;;;;;0.95;100.00;95170.41;29395;219;63005;-54
2023/12/01 00:43:36;;;;;;;0.70;0.70;;;;;;;0.94;100.00;95174.16;29395;224;63009;-54
2023/12/01 00:44:08;;;;;;;0.70;0.70;;;;;;;0.94;100.00;95179.50;29395;243;63009;-54
2023/12/01 00:44:39;;;;;;;0.60;0.60;;;;;;;0.93;100.00;95180.56;29395;219;63009;-55
2023/12/01 00:45:10;;;;;;;0.60;0.60;;;;;;;0.91;100.00;95175.50;29395;238;63005;-55
2023/12/01 00:45:42;;;;;;;0.70;0.70;;;;;;;0.92;100.00;95176.28;29395;232;63015;-54
2023/12/01 00:46:13;;;;;;;0.60;0.60;;;;;;;0.93;100.00;95177.88;29395;219;63005;-54
2023/12/01 00:46:44;;;;;;;0.60;0.60;;;;;;;0.93;100.00;95164.53;29394;248;64013;-54
2023/12/01 00:47:15;;;;;;;0.65;0.65;;;;;;;0.93;100.00;95177.88;29395;223;63004;-54
2023/12/01 00:47:46;;;;;;;0.60;0.60;;;;;;;0.93;100.00;95178.69;29395;229;63009;-55
2023/12/01 00:48:18;;;;;;;0.60;0.60;;;;;;;0.94;100.00;95174.16;29395;222;63000;-54
2023/12/01 00:48:49;;;;;;;0.70;0.70;;;;;;;0.93;100.00;95173.34;29395;235;63009;-54
2023/12/01 00:49:20;;;;;;;0.60;0.60;;;;;;;0.94;100.00;95174.16;29395;241;63010;-55
2023/12/01 00:49:52;;;;;;;0.70;0.70;;;;;;;0.93;100.00;95169.88;29394;220;64013;-54
2023/12/01 00:50:24;;;;;;;0.60;0.60;;;;;;;0.94;100.00;95179.50;29395;286;63005;-54
2023/12/01 00:50:59;;;;;;;4.97;4.53;;;;;;;0.94;100.00;95174.94;29395;227;63009;-54
2023/12/01 00:51:30;;;;;;;0.60;0.60;;;;;;;0.94;100.00;95177.63;29395;233;63016;-54
2023/12/01 00:52:04;;;;;;;0.60;0.60;;;;;;;0.95;100.00;95175.75;29395;222;63009;-55
2023/12/01 00:52:35;;;;;;;0.60;0.60;;;;;;;0.96;100.00;95177.34;29395;238;63005;-55
2023/12/01 00:53:06;;;;;;;0.60;0.60;;;;;;;0.97;100.00;95173.59;29395;216;63009;-54
2023/12/01 00:53:41;;;;;;;0.60;0.60;;;;;;;0.96;100.00;95167.47;29394;197;64009;-55
2023/12/01 00:54:12;;;;;;;0.60;0.60;;;;;;;0.99;100.00;95174.13;29395;231;63009;-55
2023/12/01 00:54:44;;;;;;;0.60;0.60;;;;;;;1.01;100.00;95177.31;29395;246;63004;-54
2023/12/01 00:55:15;;;;;;;0.60;0.60;;;;;;;1.02;100.00;95180.78;29395;238;63009;-76
2023/12/01 00:55:46;;;;;;;0.70;0.70;;;;;;;1.03;100.00;95182.41;29395;202;63004;-56
2023/12/01 00:56:18;;;;;;;0.70;0.70;;;;;;;1.04;100.00;95179.44;29395;202;63009;-55
2023/12/01 00:56:49;;;;;;;0.93;0.93;;;;;;;1.04;100.00;95184.75;29395;204;63004;-55
2023/12/01 00:57:22;;;;;;;0.60;0.60;;;;;;;1.04;100.00;95182.09;29395;230;63008;-55
2023/12/01 00:57:54;;;;;;;0.60;0.60;;;;;;;1.04;100.00;95184.75;29395;207;63005;-55
2023/12/01 00:58:25;;;;;;;0.60;0.60;;;;;;;1.03;100.00;95188.53;29395;266;63009;-55
2023/12/01 00:58:56;;;;;;;0.70;0.70;;;;;;;1.03;100.00;95183.19;29394;203;64009;-55
2023/12/01 00:59:27;;;;;;;0.70;0.70;;;;;;;1.03;100.00;95188.53;29395;233;63009;-56
2023/12/01 00:59:58;;;;;;;0.70;0.70;;;;;;;1.02;100.00;95191.47;29395;240;63005;-54
2023/12/01 01:00:30;;;;;;;0.70;0.70;;;;;;;1.02;100.00;95192.28;29395;196;63009;-55
2023/12/01 01:01:02;;;;;;;0.70;0.70;;;;;;;1.00;100.00;95181.88;29395;220;63005;-54
2023/12/01 01:01:35;;;;;;;0.60;0.60;;;;;;;0.99;100.00;95182.94;29395;244;63009;-54
2023/12/01 01:02:08;;;;;;;0.60;0.60;;;;;;;0.97;100.00;95186.97;29395;223;63004;-55
2023/12/01 01:02:40;;;;;;;0.60;0.60;;;;;;;0.96;100.00;95180.00;29395;212;63009;-54
2023/12/01 01:03:11;;;;;;;0.70;0.70;;;;;;;0.94;100.00;95190.16;29395;230;63004;-54
2023/12/01 01:03:54;;;;;;;0.62;0.62;;;;;;;0.92;100.00;95186.97;29395;236;63009;-54
2023/12/01 01:04:25;;;;;;;0.70;0.70;;;;;;;0.88;100.00;95186.72;29394;229;64009;-55
2023/12/01 01:04:57;;;;;;;0.60;0.60;;;;;;;0.86;100.00;95188.88;29395;235;63008;-55
2023/12/01 01:05:31;;;;;;;0.70;0.70;;;;;;;0.86;100.00;95182.72;29395;235;63005;-55
2023/12/01 01:06:03;;;;;;;0.60;0.60;;;;;;;0.85;100.00;95183.78;29395;240;63009;-55
2023/12/01 01:06:35;;;;;;;0.60;0.60;;;;;;;0.85;100.00;95184.59;29395;209;63008;-55
2023/12/01 01:07:06;;;;;;;0.60;0.60;;;;;;;0.85;100.00;95186.47;29395;203;63009;-55
2023/12/01 01:07:38;;;;;;;0.60;0.60;;;;;;;0.83;100.00;95180.59;29395;219;63005;-55
2023/12/01 01:08:09;;;;;;;0.70;0.70;;;;;;;0.84;100.00;95184.87;29395;289;63009;-54
2023/12/01 01:08:40;;;;;;;0.70;0.70;;;;;;;0.83;100.00;95177.94;29395;200;63016;-54
2023/12/01 01:09:12;;;;;;;0.60;0.60;;;;;;;0.81;100.00;95180.88;29395;200;63009;-55
2023/12/01 01:09:43;;;;;;;0.70;0.70;;;;;;;0.79;100.00;95177.66;29371;236;64009;-54
2023/12/01 01:10:15;;;;;;;0.70;0.70;;;;;;;0.80;100.00;95183.81;29395;239;63022;-55
2023/12/01 01:10:46;;;;;;;0.70;0.70;;;;;;;0.79;100.00;95182.22;29395;228;63004;-54
2023/12/01 01:11:17;;;;;;;0.85;0.85;;;;;;;0.78;100.00;95178.75;29395;210;63009;-54
2023/12/01 01:11:49;;;;;;;0.60;0.60;;;;;;;0.78;100.00;95181.41;29395;216;63007;-73
2023/12/01 01:12:23;;;;;;;0.60;0.60;;;;;;;0.77;100.00;95179.81;29395;215;63008;-54
2023/12/01 01:12:54;;;;;;;0.68;0.68;;;;;;;0.76;100.00;95177.41;29395;244;63005;-54
2023/12/01 01:13:28;;;;;;;0.70;0.70;;;;;;;0.75;100.00;95181.16;29395;199;63009;-54
2023/12/01 01:13:59;;;;;;;0.60;0.60;;;;;;;0.74;100.00;95188.34;29373;225;63017;-54
2023/12/01 01:14:30;;;;;;;0.60;0.60;;;;;;;0.75;100.00;95181.94;29373;205;63009;-55
2023/12/01 01:15:03;;;;;;;0.60;0.60;;;;;;;0.74;100.00;95185.69;29394;202;64009;-72
2023/12/01 01:15:34;;;;;;;0.60;0.60;;;;;;;0.73;100.00;95183.28;29373;209;63009;-72
2023/12/01 01:16:08;;;;;;;1.37;1.37;;;;;;;0.74;100.00;95187.56;29395;226;63008;-55
2023/12/01 01:16:39;;;;;;;0.60;0.60;;;;;;;0.72;100.00;95181.69;29394;211;64013;-54
2023/12/01 01:17:11;;;;;;;0.70;0.70;;;;;;;0.71;100.00;95180.88;29394;202;64009;-55
2023/12/01 01:17:42;;;;;;;0.60;0.60;;;;;;;0.71;100.00;95182.75;29395;226;63009;-57
2023/12/01 01:18:13;;;;;;;0.70;0.70;;;;;;;0.71;100.00;95182.75;29395;232;63004;-54
2023/12/01 01:18:44;;;;;;;0.70;0.70;;;;;;;0.71;100.00;95185.44;29395;208;63009;-55
2023/12/01 01:19:16;;;;;;;1.45;1.45;;;;;;;0.69;100.00;95176.94;29395;226;63015;-55
2023/12/01 01:19:47;;;;;;;0.65;0.65;;;;;;;0.67;100.00;95174.53;29395;226;63008;-55
2023/12/01 01:20:18;;;;;;;0.98;0.98;;;;;;;0.66;100.00;95179.06;29395;201;63004;-54
2023/12/01 01:20:51;;;;;;;0.70;0.70;;;;;;;0.64;100.00;95178.53;29395;215;63009;-54
2023/12/01 01:21:23;;;;;;;0.70;0.70;;;;;;;0.65;100.00;95174.78;29395;216;63005;-55
2023/12/01 01:21:54;;;;;;;0.60;0.60;;;;;;;0.65;100.00;95172.12;29395;236;63009;-70
2023/12/01 01:22:26;;;;;;;0.60;0.60;;;;;;;0.65;100.00;95171.31;29394;209;64009;-55
2023/12/01 01:22:57;;;;;;;0.60;0.60;;;;;;;0.65;100.00;95174.78;29395;239;63009;-55
2023/12/01 01:23:29;;;;;;;0.60;0.60;;;;;;;0.63;100.00;95173.47;29395;238;63005;-54
2023/12/01 01:24:00;;;;;;;0.65;0.65;;;;;;;0.63;100.00;95181.47;29395;252;63009;-55
2023/12/01 01:24:32;;;;;;;0.60;0.60;;;;;;;0.62;100.00;95180.69;29395;230;63004;-55
2023/12/01 01:25:06;;;;;;;0.65;0.65;;;;;;;0.63;100.00;95176.94;29395;204;63009;-72
2023/12/01 01:25:38;;;;;;;3.17;3.08;;;;;;;0.63;100.00;95178.81;29395;271;63004;-55
2023/12/01 01:26:09;;;;;;;0.60;0.60;;;;;;;0.64;100.00;95178.53;29395;221;63009;-54
2023/12/01 01:26:40;;;;;;;0.60;0.60;;;;;;;0.64;100.00;95173.19;29395;198;63004;-55
2023/12/01 01:27:11;;;;;;;0.68;0.68;;;;;;;0.64;100.00;95170.53;29395;210;63008;-55
2023/12/01 01:27:44;;;;;;;3.20;3.10;;;;;;;0.64;100.00;95177.75;29394;268;64008;-71
2023/12/01 01:28:15;;;;;;;0.60;0.60;;;;;;;0.64;100.00;95180.41;29395;204;63009;-56
2023/12/01 01:28:46;;;;;;;0.60;0.60;;;;;;;0.63;100.00;95176.94;29395;218;63005;-55
2023/12/01 01:29:17;;;;;;;0.70;0.70;;;;;;;0.62;100.00;95183.34;29395;211;63009;-70
2023/12/01 01:29:52;;;;;;;0.60;0.60;;;;;;;0.62;100.00;95174.53;29395;238;63015;-56
2023/12/01 01:30:23;;;;;;;0.70;0.70;;;;;;;0.63;100.00;95184.16;29395;207;63009;-56
2023/12/01 01:30:54;;;;;;;0.70;0.70;;;;;;;0.63;100.00;95190.28;29395;322;63005;-56
2023/12/01 01:31:26;;;;;;;0.60;0.60;;;;;;;0.61;100.00;95183.63;29395;247;63009;-56
2023/12/01 01:31:57;;;;;;;0.65;0.65;;;;;;;0.59;100.00;95183.87;29395;197;63004;-55
2023/12/01 01:32:28;;;;;;;0.70;0.70;;;;;;;0.59;100.00;95186.56;29395;261;63009;-55
2023/12/01 01:33:00;;;;;;;0.60;0.60;;;;;;;0.59;100.00;95189.22;29394;232;64008;-56
2023/12/01 01:33:31;;;;;;;0.60;0.60;;;;;;;0.60;100.00;95192.69;29395;197;63009;-56
2023/12/01 01:34:02;;;;;;;0.60;0.60;;;;;;;0.59;100.00;95194.56;29395;210;63004;-56
2023/12/01 01:34:34;;;;;;;0.60;0.60;;;;;;;0.60;100.00;95198.03;29395;235;63008;-55
2023/12/01 01:35:06;;;;;;;0.60;0.60;;;;;;;0.59;100.00;95196.44;29395;209;63005;-56
2023/12/01 01:35:38;;;;;;;0.60;0.60;;;;;;;0.59;100.00;95189.22;29395;202;63009;-69
2023/12/01 01:36:10;;;;;;;0.70;0.70;;;;;;;0.57;100.00;95196.69;29373;203;63005;-55
2023/12/01 01:36:44;;;;;;;0.70;0.70;;;;;;;0.56;100.00;95195.09;29395;307;63009;-56
2023/12/01 01:38:22;;;;;;;0.67;0.67;;;;;;;0.57;100.00;95196.69;88178;217;64004;-56
2023/12/01 01:38:53;;;;;;;0.60;0.60;;;;;;;0.58;100.00;95192.97;29394;294;64009;-56
2023/12/01 01:39:24;;;;;;;0.70;0.70;;;;;;;0.57;100.00;95191.37;29395;220;63005;-55
2023/12/01 01:39:58;;;;;;;0.75;0.75;;;;;;;0.57;100.00;95186.03;29395;206;63009;-55
2023/12/01 01:40:29;;;;;;;0.70;0.70;;;;;;;0.55;100.00;95190.84;29394;197;64009;-57
2023/12/01 01:41:01;;;;;;;0.60;0.60;;;;;;;0.54;100.00;95181.22;29395;197;63009;-56
2023/12/01 01:41:32;;;;;;;0.70;0.70;;;;;;;0.55;100.00;95188.16;29395;196;63005;-56
2023/12/01 01:42:04;;;;;;;0.70;0.70;;;;;;;0.53;100.00;95186.84;29395;204;63019;-56
2023/12/01 01:42:35;;;;;;;0.60;0.60;;;;;;;0.52;100.00;95182.56;29395;233;63009;-57
2023/12/01 01:43:06;;;;;;;0.60;0.60;;;;;;;0.49;100.00;95189.25;29395;251;63009;-66
2023/12/01 01:43:38;;;;;;;0.62;0.62;;;;;;;0.47;100.00;95191.37;29395;202;63004;-56
2023/12/01 01:44:09;;;;;;;0.60;0.60;;;;;;;0.45;100.00;95184.72;29395;202;63009;-57
2023/12/01 01:44:40;;;;;;;0.60;0.60;;;;;;;0.44;100.00;95191.91;29395;235;63004;-57
2023/12/01 01:45:12;;;;;;;0.60;0.60;;;;;;;0.44;100.00;95194.59;29395;202;63008;-58
2023/12/01 01:45:43;;;;;;;0.70;0.70;;;;;;;0.44;100.00;95196.44;29394;200;64009;-58
2023/12/01 01:46:14;;;;;;;0.70;0.70;;;;;;;0.43;100.00;95195.66;29395;234;63009;-58
2023/12/01 01:46:46;;;;;;;0.60;0.60;;;;;;;0.44;100.00;95202.59;29395;239;63005;-57
2023/12/01 01:47:19;;;;;;;0.60;0.60;;;;;;;0.43;100.00;95201.00;29395;264;63009;-58
2023/12/01 01:47:52;;;;;;;0.68;0.68;;;;;;;0.44;100.00;95202.59;29373;205;63005;-58
2023/12/01 01:48:24;;;;;;;0.80;0.80;;;;;;;0.42;100.00;95204.72;29395;228;63026;-58
2023/12/01 01:48:56;;;;;;;0.60;0.60;;;;;;;0.42;100.00;95196.72;29395;235;63005;-58
2023/12/01 01:49:27;;;;;;;0.60;0.60;;;;;;;0.42;100.00;95202.06;29373;215;63009;-58
2023/12/01 01:49:59;;;;;;;0.70;0.70;;;;;;;0.41;100.00;95197.78;29373;225;63004;-58
2023/12/01 01:50:31;;;;;;;0.60;0.60;;;;;;;0.40;100.00;95195.38;29394;209;64013;-58
2023/12/01 01:51:08;;;;;;;0.60;0.60;;;;;;;0.40;100.00;95190.84;29395;211;63009;-58
2023/12/01 01:51:40;;;;;;;0.65;0.65;;;;;;;0.40;100.00;95190.84;29395;262;63009;-58
2023/12/01 01:52:11;;;;;;;0.60;0.60;;;;;;;0.38;100.00;95182.31;29395;218;63004;-57
2023/12/01 01:52:43;;;;;;;0.60;0.60;;;;;;;0.37;100.00;95177.25;29395;233;63008;-57
2023/12/01 01:53:15;;;;;;;0.65;0.65;;;;;;;0.35;100.00;95182.84;29395;277;63005;-57
2023/12/01 01:53:47;;;;;;;0.62;0.62;;;;;;;0.34;100.00;95181.28;29395;211;63009;-57
2023/12/01 01:54:20;;;;;;;0.70;0.70;;;;;;;0.33;100.00;95177.03;29373;218;63010;-57
2023/12/01 01:54:51;;;;;;;1.35;1.35;;;;;;;0.32;100.00;95188.75;29373;259;63009;-58
2023/12/01 01:55:23;;;;;;;0.60;0.60;;;;;;;0.32;100.00;95194.09;29373;199;63005;-58
2023/12/01 01:55:57;;;;;;;0.70;0.70;;;;;;;0.31;100.00;95192.50;29394;278;64013;-57
2023/12/01 01:56:32;;;;;;;0.60;0.60;;;;;;;0.30;100.00;95191.69;29395;216;63005;-57
2023/12/01 01:57:04;;;;;;;0.60;0.60;;;;;;;0.29;100.00;95197.28;29394;236;64009;-57
2023/12/01 01:57:45;;;;;;;0.70;0.70;;;;;;;0.30;100.00;95198.91;29395;261;63004;-57
2023/12/01 01:58:16;;;;;;;;;;;;;;;0.29;100.00;95200.78;29974;983;28000;-58
2023/12/01 01:58:50;;;;;;;0.70;0.70;;;;;;;0.30;100.00;95207.69;29422;232;63009;-57
2023/12/01 01:59:22;;;;;;;0.70;0.70;;;;;;;0.30;100.00;95206.91;29395;197;63004;-57
2023/12/01 01:59:53;;;;;;;0.70;0.70;;;;;;;0.28;100.00;95204.50;29373;234;63008;-57
2023/12/01 02:00:24;;;;;;;0.70;0.70;;;;;;;0.27;100.00;95207.44;29371;291;64009;-57
2023/12/01 02:00:56;;;;;;;0.60;0.60;;;;;;;0.26;100.00;95208.50;29373;290;63009;-56
2023/12/01 02:01:27;;;;;;;0.60;0.60;;;;;;;0.26;100.00;95205.84;29395;197;63005;-57
2023/12/01 02:01:58;;;;;;;0.60;0.60;;;;;;;0.25;100.00;95217.56;29373;218;63009;-58
2023/12/01 02:02:29;;;;;;;0.60;0.60;;;;;;;0.25;100.00;95220.25;29373;262;63005;-57
2023/12/01 02:03:00;;;;;;;0.60;0.60;;;;;;;0.25;100.00;95228.25;29395;197;63009;-57
2023/12/01 02:03:32;;;;;;;0.60;0.60;;;;;;;0.25;100.00;95220.25;29395;203;63005;-57
2023/12/01 02:04:03;;;;;;;0.60;0.60;;;;;;;0.23;100.00;95227.72;29395;221;63009;-57
2023/12/01 02:04:36;;;;;;;0.60;0.60;;;;;;;0.21;100.00;95224.50;29373;246;63019;-58
2023/12/01 02:05:13;;;;;;;0.70;0.70;;;;;;;0.20;100.00;95222.91;29373;197;63004;-57
2023/12/01 02:05:47;;;;;;;0.70;0.70;;;;;;;0.19;100.00;95221.31;29371;249;64009;-56
2023/12/01 02:06:19;;;;;;;0.70;0.70;;;;;;;0.19;100.00;95232.78;29373;230;63027;-57
2023/12/01 02:06:51;;;;;;;0.60;0.60;;;;;;;0.19;100.00;95231.97;29395;221;63004;-55
2023/12/01 02:07:25;;;;;;;0.68;0.68;;;;;;;0.18;100.00;95231.19;29373;300;63008;-55
2023/12/01 02:07:57;;;;;;;0.70;0.70;;;;;;;0.17;100.00;95234.91;29395;244;63005;-56
2023/12/01 02:08:30;;;;;;;0.68;0.68;;;;;;;0.16;100.00;95227.97;29395;243;63009;-56
2023/12/01 02:09:02;;;;;;;0.68;0.68;;;;;;;0.17;100.00;95234.09;29373;243;63009;-56
2023/12/01 02:09:35;;;;;;;0.60;0.60;;;;;;;0.15;100.00;95236.25;29395;237;63009;-56
2023/12/01 02:10:15;;;;;;;0.70;0.70;;;;;;;0.15;100.00;95241.56;29373;212;63005;-55
2023/12/01 02:10:46;;;;;;;0.60;0.60;;;;;;;0.15;100.00;95233.56;29416;205;64013;-56
2023/12/01 02:11:18;;;;;;;0.60;0.60;;;;;;;0.14;100.00;95230.09;29395;230;63005;-56
2023/12/01 02:11:49;;;;;;;0.60;0.60;;;;;;;0.15;100.00;95236.25;29395;237;63009;-55
2023/12/01 02:12:20;;;;;;;0.60;0.60;;;;;;;0.14;100.00;95229.31;29373;339;63004;-56
2023/12/01 02:12:52;;;;;;;0.60;0.60;;;;;;;0.12;100.00;95226.91;29373;276;63009;-56
2023/12/01 02:13:24;;;;;;;0.70;0.70;;;;;;;0.12;100.00;95220.78;29373;239;63004;-59
2023/12/01 02:13:59;;;;;;;0.60;0.60;;;;;;;0.12;100.00;95226.09;29395;236;63009;-56
2023/12/01 02:14:30;;;;;;;0.60;0.60;;;;;;;0.11;100.00;95219.97;29395;279;63004;-57
2023/12/01 02:15:02;;;;;;;0.60;0.60;;;;;;;0.10;100.00;95218.38;29395;239;63008;-57
2023/12/01 02:15:35;;;;;;;0.60;0.60;;;;;;;0.10;100.00;95214.91;29373;229;63005;-55
2023/12/01 02:16:09;;;;;;;0.60;0.60;;;;;;;0.09;100.00;95208.78;29394;237;64014;-65
2023/12/01 02:16:45;;;;;;;0.60;0.60;;;;;;;0.08;100.00;95215.16;29395;268;63017;-56
2023/12/01 02:17:17;;;;;;;0.70;0.70;;;;;;;0.07;100.00;95215.44;29395;204;63009;-57
2023/12/01 02:17:49;;;;;;;0.62;0.62;;;;;;;0.05;100.00;95207.69;29373;218;63005;-56
2023/12/01 02:18:31;;;;;;;0.60;0.60;;;;;;;0.04;100.00;95207.97;29395;197;63009;-57
2023/12/01 02:19:05;;;;;;;0.60;0.60;;;;;;;0.03;100.00;95211.69;29395;296;63015;-56
2023/12/01 02:19:37;;;;;;;0.70;0.70;;;;;;;-0.01;100.00;95206.94;29373;214;63021;-56
2023/12/01 02:20:14;;;;;;;0.60;0.60;;;;;;;-0.01;100.00;95206.94;29373;199;63004;-57
2023/12/01 02:20:46;;;;;;;0.70;0.70;;;;;;;0.00;100.00;95213.06;29373;203;63009;-57
2023/12/01 02:21:24;;;;;;;0.60;0.60;;;;;;;-0.02;100.00;95205.34;29371;226;64009;-57
2023/12/01 02:21:55;;;;;;;0.60;0.60;;;;;;;-0.01;100.00;95217.59;29373;239;63009;-57
2023/12/01 02:22:27;;;;;;;0.62;0.62;;;;;;;-0.02;100.00;95210.66;29373;244;63004;-57
2023/12/01 02:23:03;;;;;;;0.70;0.70;;;;;;;-0.03;100.00;95214.41;29373;219;63016;-57
2023/12/01 02:23:34;;;;;;;0.60;0.60;;;;;;;-0.04;100.00;95204.78;29373;330;63005;-57
2023/12/01 02:24:05;;;;;;;0.60;0.60;;;;;;;-0.04;100.00;95212.00;29373;249;63009;-58
2023/12/01 02:24:36;;;;;;;0.70;0.70;;;;;;;-0.05;100.00;95205.84;29373;336;63009;-57
2023/12/01 02:25:08;;;;;;;0.60;0.60;;;;;;;-0.06;100.00;95203.47;29373;297;63009;-57
2023/12/01 02:25:39;;;;;;;0.60;0.60;;;;;;;-0.07;100.00;95208.00;29373;198;63005;-57
2023/12/01 02:26:10;;;;;;;0.70;0.70;;;;;;;-0.07;100.00;95205.31;29373;310;63009;-57
2023/12/01 02:26:42;;;;;;;0.60;0.60;;;;;;;-0.08;100.00;95214.37;29371;233;64009;-58
2023/12/01 02:27:13;;;;;;;0.70;0.70;;;;;;;-0.08;100.00;95214.37;29373;213;63004;-58
2023/12/01 02:27:44;;;;;;;2.50;2.42;;;;;;;-0.07;100.00;95221.31;29395;277;63007;-58
2023/12/01 02:28:16;;;;;;;0.70;0.70;;;;;;;-0.07;100.00;95217.84;29373;290;63009;-58
2023/12/01 02:28:47;;;;;;;0.70;0.70;;;;;;;-0.07;100.00;95224.00;29373;235;63004;-59
2023/12/01 02:29:19;;;;;;;0.70;0.70;;;;;;;-0.07;100.00;95229.31;29395;240;63016;-57
2023/12/01 02:29:50;;;;;;;0.60;0.60;;;;;;;-0.06;100.00;95225.59;29395;227;63011;-58
2023/12/01 02:30:21;;;;;;;0.60;0.60;;;;;;;-0.07;100.00;95224.00;29395;297;63008;-59
2023/12/01 02:30:54;;;;;;;0.80;0.80;;;;;;;-0.07;100.00;95224.00;29373;198;63005;-57
2023/12/01 02:31:26;;;;;;;0.70;0.70;;;;;;;-0.08;100.00;95217.06;29373;234;63009;-59
2023/12/01 02:31:58;;;;;;;0.70;0.70;;;;;;;-0.10;100.00;95216.53;29371;252;64009;-58
2023/12/01 02:32:29;;;;;;;0.60;0.60;;;;;;;-0.10;100.00;95219.19;29373;212;63017;-59
2023/12/01 02:33:01;;;;;;;0.60;0.60;;;;;;;-0.11;100.00;95212.25;29373;232;63005;-58
2023/12/01 02:33:32;;;;;;;0.60;0.60;;;;;;;-0.13;100.00;95218.91;29373;289;63013;-60
2023/12/01 02:34:04;;;;;;;1.95;1.85;;;;;;;-0.14;100.00;95212.78;29373;266;63004;-58